Burnet, TX (78611)

1:41 PM CDT on August 28, 2015 (GMT -0500)
Shale Valley Ranch | | Change Station
CLOSE
Current Station
Personal Weather Station
Location: Burnet, TX
Elevation: 1539 ft
Nearby Weather Stations

Elev 1539 ft 30.83 °N, 98.28 °W | Updated 9 minutes ago

Clear
Clear
90.4 °F
Feels Like 90 °F
N
7.0
Wind Variable Wind from ESE
Gusts 12.0 mph

Today
High -- | Low -- °F
--% Chance of Precip.
Yesterday
High -- | Low -- °F
Precip. -- in
7:06 AM 8:00 PM
Waxing Gibbous, 98% visible
Pressure 29.99 in
Visibility 10.0 miles
Clouds Clear
Heat Index 90 °F
Dew Point 61 °F
Humidity 37%
Rainfall 0.00 in
Snow Depth Not available.
UV 11 out of 12
Pollen 6.20 out of 12
Air Quality Not available.
Flu Activity Not available.
METAR KBMQ 281753Z AUTO 21005KT 10SM CLR 32/14 A3005 RMK AO2 SLP156 T03220144 10322 20200 58003 $
Pressure 29.99 in
Visibility 10.0 miles
Clouds Clear
Heat Index 90 °F
Dew Point 61 °F
Humidity 37%
Rainfall 0.00 in
Snow Depth Not available.
UV 11 out of 12
Pollen 6.20 out of 12
Air Quality Not available.
Flu Activity Not available.
METAR KBMQ 281753Z AUTO 21005KT 10SM CLR 32/14 A3005 RMK AO2 SLP156 T03220144 10322 20200 58003 $

10-Day Weather Forecast

×

Almanac

Astronomy

Aug. 28, 2015 Rise Set
Actual Time
Civil Twilight
Nautical Twilight
Astronomical Twilight
Moon
Length of Visible Light
Length of Day
Tomorrow will be .
, % of the Moon is Illuminated

Today's Extremes

State Highs State Lows

Community

WunderPhotos

Upload Photos

1,850,453 photos uploaded!

WunderBlogs® & News

Nearby

Air Quality

  Air Quality AQ Index Pollutant
Not available.

Snow Depth

Station Depth Elevation

Earthquake Activity

City Distance Mag. Time & Date
Minimum magnitude displayed is 2.5.

Coastal Water Temperatures

Place Temperature

Stations

Nearby Weather Stations

Station Location Temp. Windchill Dew Point Humidity Wind Precip. Elev Updated Type